Time;durP1;ratioP1;P1;durP2;ratioP2;P2;SDS_P1;SDS_P2;PMS_P1;PMS_P2;Temp;Humidity;BMP_temperature;BMP_pressure;BME280_temperature;BME280_humidity;BME280_pressure;Samples;Min_cycle;Max_cycle;Signal;HPM_P1;HPM_P2
2022/10/06 00:00:36;536321.00;1.79;924.38;70061.00;0.23;121.87;;;;;19.50;1.00;;;;;;2272313;61;1158;-86
2022/10/06 00:03:03;569555.00;1.90;981.68;60898.00;0.20;106.03;;;;;19.50;1.00;;;;;;2272274;61;1405;-85
2022/10/06 00:05:35;117680384.00;392.27;66015144.00;88530.00;0.30;153.77;;;;;19.40;1.00;;;;;;2272170;61;1051;-86
2022/10/06 00:08:02;675945.00;2.25;1165.55;90927.00;0.30;157.91;;;;;19.30;1.00;;;;;;2272259;61;1988;-86
2022/10/06 00:10:29;1037285.00;3.46;1798.62;60454.00;0.20;105.26;;;;;19.30;1.00;;;;;;2272229;61;1228;-85
2022/10/06 00:12:58;773769.00;2.58;1335.41;62820.00;0.21;109.35;;;;;19.30;1.00;;;;;;2272232;61;1286;-85
2022/10/06 00:15:28;1287986.00;4.29;2250.14;119225.00;0.40;206.75;;;;;19.10;1.00;;;;;;2272162;61;1623;-84
2022/10/06 00:17:56;903945.00;3.01;1563.05;92299.00;0.31;160.28;;;;;19.00;1.00;;;;;;2272221;61;1019;-87
2022/10/06 00:20:23;890379.00;2.97;1539.23;65148.00;0.22;113.38;;;;;19.10;1.00;;;;;;2272152;61;903;-86
2022/10/06 00:22:50;697552.00;2.33;1202.99;62083.00;0.21;108.08;;;;;18.90;1.00;;;;;;2272174;61;1290;-84
2022/10/06 00:25:19;598899.00;2.00;1032.32;52621.00;0.18;91.72;;;;;19.00;1.00;;;;;;2272188;61;1108;-86
2022/10/06 00:27:48;684820.00;2.28;1180.92;60537.00;0.20;105.41;;;;;19.20;1.00;;;;;;2272029;61;2006;-85
2022/10/06 00:30:18;893986.00;2.98;1545.56;114601.00;0.38;198.77;;;;;19.20;1.00;;;;;;2272216;61;1049;-86
2022/10/06 00:32:52;495889.00;1.65;854.75;54449.00;0.18;94.88;;;;;19.00;1.00;;;;;;2272153;61;1398;-86
2022/10/06 00:35:20;413633.00;1.38;713.24;0.00;0.00;0.62;;;;;18.40;1.00;;;;;;2272204;61;1007;-85
2022/10/06 00:37:46;482192.00;1.61;831.17;28974.00;0.10;50.81;;;;;18.40;1.00;;;;;;2272144;61;1039;-85
2022/10/06 00:40:13;801284.00;2.67;1383.36;0.00;0.00;0.62;;;;;18.50;1.00;;;;;;2272144;61;1134;-85
2022/10/06 00:42:53;631965.00;2.11;1089.45;4877.00;0.02;9.07;;;;;18.70;1.00;;;;;;2272162;61;1134;-85
2022/10/06 00:45:27;129880408.00;432.93;88773504.00;0.00;0.00;0.62;;;;;19.00;1.00;;;;;;2272130;61;984;-86
2022/10/06 00:47:59;714927.00;2.38;1233.13;27625.00;0.09;48.47;;;;;19.10;1.00;;;;;;2272099;61;1917;-86
2022/10/06 00:50:27;679793.00;2.27;1172.21;0.00;0.00;0.62;;;;;19.00;1.00;;;;;;2272118;61;1149;-87
2022/10/06 00:52:54;566354.00;1.89;976.16;0.00;0.00;0.62;;;;;18.80;1.00;;;;;;2272134;61;1384;-87
2022/10/06 00:55:21;651155.00;2.17;1122.63;0.00;0.00;0.62;;;;;18.90;1.00;;;;;;2272031;61;1038;-87
2022/10/06 00:57:50;804448.00;2.68;1388.88;0.00;0.00;0.62;;;;;19.00;1.00;;;;;;2272161;61;1124;-85
2022/10/06 01:00:17;736913.00;2.46;1271.31;3769.00;0.01;7.15;;;;;19.00;1.00;;;;;;2272122;61;1113;-86
2022/10/06 01:02:50;720468.00;2.40;1242.75;63935.00;0.21;111.28;;;;;19.00;1.00;;;;;;2272105;61;1376;-86
2022/10/06 01:05:22;467158.00;1.56;805.30;0.00;0.00;0.62;;;;;19.00;1.00;;;;;;2272068;61;1055;-86
2022/10/06 01:07:49;628055.00;2.09;1082.69;4153.00;0.01;7.82;;;;;19.10;1.00;;;;;;2271800;61;1984;-86
2022/10/06 01:10:16;652774.00;2.18;1125.44;0.00;0.00;0.62;;;;;19.00;1.00;;;;;;2272416;61;1082;-86
2022/10/06 01:12:44;656078.00;2.19;1131.15;0.00;0.00;0.62;;;;;18.90;1.00;;;;;;2272796;61;1032;-86
2022/10/06 01:15:11;436316.00;1.45;752.25;0.00;0.00;0.62;;;;;18.70;1.00;;;;;;2272715;61;1044;-86
2022/10/06 01:17:46;731553.00;2.44;1262.00;24510.00;0.08;43.08;;;;;18.60;1.00;;;;;;2272848;61;987;-87
2022/10/06 01:20:17;464351.00;1.55;800.47;0.00;0.00;0.62;;;;;18.50;1.00;;;;;;2272707;61;1109;-87
2022/10/06 01:22:50;404124.00;1.35;696.89;0.00;0.00;0.62;;;;;18.50;1.00;;;;;;2272697;61;1537;-87
2022/10/06 01:25:18;559881.00;1.87;965.00;16714.00;0.06;29.58;;;;;18.60;1.00;;;;;;2272750;61;1172;-85
2022/10/06 01:27:52;442645.00;1.48;763.13;0.00;0.00;0.62;;;;;18.60;1.00;;;;;;2272637;61;2012;-85
2022/10/06 01:30:25;389861.00;1.30;672.38;67300.00;0.22;117.09;;;;;18.60;1.00;;;;;;2272757;61;1075;-85
2022/10/06 01:32:52;276743.00;0.92;477.94;0.00;0.00;0.62;;;;;18.60;1.00;;;;;;2272626;61;1346;-86
2022/10/06 01:38:42;343778.00;1.15;593.17;0.00;0.00;0.62;;;;;18.50;1.00;;;;;;2272778;61;610;-86
2022/10/06 01:41:09;358724.00;1.20;618.86;0.00;0.00;0.62;;;;;18.60;1.00;;;;;;2272642;61;1109;-86
2022/10/06 01:43:36;483221.00;1.61;832.94;0.00;0.00;0.62;;;;;18.40;1.00;;;;;;2272626;61;1412;-86
2022/10/06 01:46:03;364008.00;1.21;627.94;0.00;0.00;0.62;;;;;18.40;1.00;;;;;;2272651;61;1105;-86
2022/10/06 01:48:30;356104.00;1.19;614.35;0.00;0.00;0.62;;;;;18.20;1.00;;;;;;2272558;61;1915;-86
2022/10/06 01:50:57;500662.00;1.67;862.96;0.00;0.00;0.62;;;;;18.00;1.00;;;;;;2272586;61;1004;-86
2022/10/06 01:53:24;523959.00;1.75;903.08;0.00;0.00;0.62;;;;;18.10;1.00;;;;;;2272624;61;1243;-86
2022/10/06 01:55:57;431556.00;1.44;744.06;0.00;0.00;0.62;;;;;18.30;1.00;;;;;;2272582;61;1407;-86
2022/10/06 01:58:24;318338.00;1.06;549.44;0.00;0.00;0.62;;;;;18.40;1.00;;;;;;2272644;61;1040;-86
2022/10/06 02:00:51;460630.00;1.54;794.07;0.00;0.00;0.62;;;;;18.00;1.00;;;;;;2272609;61;1103;-84
2022/10/06 02:03:18;471467.00;1.57;812.71;0.00;0.00;0.62;;;;;17.80;1.00;;;;;;2272568;61;1351;-86
2022/10/06 02:05:45;329676.00;1.10;568.93;0.00;0.00;0.62;;;;;17.40;1.00;;;;;;2272546;61;1057;-85
2022/10/06 02:08:12;471948.00;1.57;813.54;0.00;0.00;0.62;;;;;17.40;1.00;;;;;;2271553;61;1918;-87
2022/10/06 02:10:39;117596016.00;391.99;65873132.00;0.00;0.00;0.62;;;;;17.60;1.00;;;;;;2272452;61;954;-88
2022/10/06 02:13:07;434020.00;1.45;748.30;0.00;0.00;0.62;;;;;17.90;1.00;;;;;;2272514;61;2004;-87
2022/10/06 02:15:34;384554.00;1.28;663.25;0.00;0.00;0.62;;;;;18.20;1.00;;;;;;2272561;61;986;-87
2022/10/06 02:18:01;552316.00;1.84;951.95;0.00;0.00;0.62;;;;;18.10;1.00;;;;;;2272590;61;1017;-86
2022/10/06 02:20:28;461409.00;1.54;795.41;0.00;0.00;0.62;;;;;18.10;1.00;;;;;;2272472;61;997;-85
2022/10/06 02:22:55;660265.00;2.20;1138.40;30632.00;0.10;53.68;;;;;18.10;1.00;;;;;;2272497;61;1270;-85
2022/10/06 02:25:22;322457.00;1.07;556.52;0.00;0.00;0.62;;;;;18.00;1.00;;;;;;2272541;61;920;-85
2022/10/06 02:27:48;461265.00;1.54;795.16;0.00;0.00;0.62;;;;;18.00;1.00;;;;;;2272506;61;2014;-85
2022/10/06 02:30:17;478327.00;1.59;824.52;0.00;0.00;0.62;;;;;18.20;1.00;;;;;;2272513;61;1092;-85
2022/10/06 02:32:44;456397.00;1.52;786.79;0.00;0.00;0.62;;;;;18.40;1.00;;;;;;2272411;61;1072;-87
2022/10/06 02:35:12;413175.00;1.38;712.46;0.00;0.00;0.62;;;;;18.50;1.00;;;;;;2272513;61;997;-86
2022/10/06 02:37:40;659368.00;2.20;1136.85;0.00;0.00;0.62;;;;;18.60;1.00;;;;;;2272429;61;961;-87
2022/10/06 02:40:08;303293.00;1.01;523.58;0.00;0.00;0.62;;;;;18.40;1.00;;;;;;2272509;61;1115;-85
2022/10/06 02:42:36;486689.00;1.62;838.91;0.00;0.00;0.62;;;;;18.20;1.00;;;;;;2272495;61;1117;-86
2022/10/06 02:45:05;519795.00;1.73;895.91;0.00;0.00;0.62;;;;;18.10;1.00;;;;;;2272445;61;1347;-86
2022/10/06 02:47:33;446532.00;1.49;769.82;0.00;0.00;0.62;;;;;18.10;1.00;;;;;;2272481;61;1143;-86
2022/10/06 02:50:02;374148.00;1.25;645.37;0.00;0.00;0.62;;;;;18.20;1.00;;;;;;2272336;61;2005;-87
2022/10/06 02:52:33;365413.00;1.22;630.35;0.00;0.00;0.62;;;;;18.10;1.00;;;;;;2272394;61;1018;-86
2022/10/06 02:55:00;474799.00;1.58;818.45;0.00;0.00;0.62;;;;;18.00;1.00;;;;;;2272371;61;1310;-86
2022/10/06 02:57:27;490892.00;1.64;846.14;49029.00;0.16;85.51;;;;;17.70;1.00;;;;;;2272425;61;1076;-85
2022/10/06 02:59:54;468875.00;1.56;808.25;0.00;0.00;0.62;;;;;17.20;1.00;;;;;;2272436;61;1058;-86
2022/10/06 03:02:21;502393.00;1.67;865.94;0.00;0.00;0.62;;;;;17.40;1.00;;;;;;2272390;61;1082;-88
2022/10/06 03:04:50;452872.00;1.51;780.72;0.00;0.00;0.62;;;;;17.60;1.00;;;;;;2272376;61;1411;-86
2022/10/06 03:07:17;540509.00;1.80;931.60;0.00;0.00;0.62;;;;;17.60;1.00;;;;;;2272447;61;1065;-86
2022/10/06 03:09:44;414569.00;1.38;714.85;0.00;0.00;0.62;;;;;17.60;1.00;;;;;;2272387;61;1910;-86
2022/10/06 03:12:11;627800.00;2.09;1082.25;117496.00;0.39;203.76;;;;;17.60;1.00;;;;;;2272396;61;1093;-88
2022/10/06 03:14:38;344814.00;1.15;594.95;0.00;0.00;0.62;;;;;17.80;1.00;;;;;;2272259;61;1388;-84
2022/10/06 03:17:05;397928.00;1.33;686.24;0.00;0.00;0.62;;;;;18.00;1.00;;;;;;2272357;61;1086;-83
2022/10/06 03:19:32;470356.00;1.57;810.80;0.00;0.00;0.62;;;;;17.90;1.00;;;;;;2272235;61;1245;-84
2022/10/06 03:22:00;402361.00;1.34;693.86;0.00;0.00;0.62;;;;;17.70;1.00;;;;;;2272406;61;1104;-85
2022/10/06 03:24:27;414864.00;1.38;715.36;0.00;0.00;0.62;;;;;17.40;1.00;;;;;;2272271;61;2282;-85
2022/10/06 03:26:54;630871.00;2.10;1087.55;0.00;0.00;0.62;;;;;17.00;1.00;;;;;;2272348;61;919;-86
2022/10/06 03:29:20;507929.00;1.69;875.48;0.00;0.00;0.62;;;;;17.10;1.00;;;;;;2272185;61;1915;-88
2022/10/06 03:31:47;480741.00;1.60;828.67;0.00;0.00;0.62;;;;;17.60;1.00;;;;;;2272167;61;934;-85
2022/10/06 03:34:14;644383.00;2.15;1110.92;56845.00;0.19;99.02;;;;;17.80;1.00;;;;;;2272261;61;1344;-87
2022/10/06 03:36:42;407422.00;1.36;702.56;0.00;0.00;0.62;;;;;17.70;1.00;;;;;;2272287;61;1100;-84
2022/10/06 03:39:11;242055.00;0.81;418.29;0.00;0.00;0.62;;;;;17.70;1.00;;;;;;2272389;61;1058;-85
2022/10/06 03:41:38;353679.00;1.18;610.18;0.00;0.00;0.62;;;;;17.90;1.00;;;;;;2272272;61;1111;-85
2022/10/06 03:44:06;278835.00;0.93;481.53;0.00;0.00;0.62;;;;;18.20;1.00;;;;;;2272291;61;1280;-87
2022/10/06 03:46:35;514590.00;1.72;886.95;0.00;0.00;0.62;;;;;18.30;1.00;;;;;;2272307;61;1014;-84
2022/10/06 03:49:02;429738.00;1.43;740.93;0.00;0.00;0.62;;;;;18.10;1.00;;;;;;2272291;61;1998;-86
2022/10/06 03:51:31;357375.00;1.19;616.54;0.00;0.00;0.62;;;;;17.40;1.00;;;;;;2272253;61;1076;-87
2022/10/06 03:53:59;395195.00;1.32;681.54;0.00;0.00;0.62;;;;;17.50;1.00;;;;;;2272250;61;1288;-85
2022/10/06 03:56:29;383864.00;1.28;662.07;0.00;0.00;0.62;;;;;17.20;1.00;;;;;;2272141;61;1007;-85
2022/10/06 03:58:58;293686.00;0.98;507.07;0.00;0.00;0.62;;;;;17.40;1.00;;;;;;2272219;61;1796;-86
2022/10/06 04:01:27;442389.00;1.47;762.69;0.00;0.00;0.62;;;;;17.50;1.00;;;;;;2272282;61;1119;-86
2022/10/06 04:03:55;35235.00;0.12;61.64;0.00;0.00;0.62;;;;;17.40;1.00;;;;;;2272136;61;1367;-86
2022/10/06 04:06:22;382800.00;1.28;660.24;0.00;0.00;0.62;;;;;17.20;1.00;;;;;;2272252;61;1116;-87
2022/10/06 04:08:50;377589.00;1.26;651.28;0.00;0.00;0.62;;;;;17.20;1.00;;;;;;2272083;61;1996;-86
2022/10/06 04:11:20;405414.00;1.35;699.11;0.00;0.00;0.62;;;;;17.40;1.00;;;;;;2272122;61;1023;-87
2022/10/06 04:13:52;467919.00;1.56;806.61;0.00;0.00;0.62;;;;;17.60;1.00;;;;;;2272182;61;1372;-86
2022/10/06 04:16:21;439258.00;1.46;757.31;5836.00;0.02;10.73;;;;;17.70;1.00;;;;;;2272244;61;1048;-86
2022/10/06 04:18:50;693116.00;2.31;1195.30;0.00;0.00;0.62;;;;;17.60;1.00;;;;;;2272096;61;1041;-85
2022/10/06 04:21:18;637431.00;2.12;1098.90;41224.00;0.14;72.01;;;;;17.30;1.00;;;;;;2272246;61;1103;-87
2022/10/06 04:23:45;434774.00;1.45;749.60;40243.00;0.13;70.31;;;;;17.30;1.00;;;;;;2272109;61;1299;-86
2022/10/06 04:26:15;488086.00;1.63;841.31;0.00;0.00;0.62;;;;;17.30;1.00;;;;;;2272221;61;1079;-85
2022/10/06 04:28:43;539564.00;1.80;929.97;26780.00;0.09;47.01;;;;;17.40;1.00;;;;;;2272068;61;2004;-86
2022/10/06 04:31:15;351877.00;1.17;607.09;0.00;0.00;0.62;;;;;17.50;1.00;;;;;;2272122;61;1547;-85
2022/10/06 04:33:43;344616.00;1.15;594.61;22917.00;0.08;40.32;;;;;17.40;1.00;;;;;;2272107;61;2206;-86
2022/10/06 04:36:14;297077.00;0.99;512.90;0.00;0.00;0.62;;;;;17.50;1.00;;;;;;2272044;61;1095;-86
2022/10/06 04:38:41;245878.00;0.82;424.86;0.00;0.00;0.62;;;;;17.70;1.00;;;;;;2272095;61;1130;-86
2022/10/06 04:41:11;318168.00;1.06;549.15;0.00;0.00;0.62;;;;;17.60;1.00;;;;;;2272082;61;1592;-85
2022/10/06 04:43:38;652682.00;2.18;1125.28;11045.00;0.04;19.76;;;;;17.60;1.00;;;;;;2272230;61;1740;-87
2022/10/06 04:46:06;804101.00;2.68;1388.28;109102.00;0.36;189.28;;;;;17.80;1.00;;;;;;2272840;61;955;-87
2022/10/06 04:48:34;475944.00;1.59;820.42;0.00;0.00;0.62;;;;;17.90;1.00;;;;;;2272847;61;1992;-87
2022/10/06 04:51:02;321393.00;1.07;554.69;0.00;0.00;0.62;;;;;18.10;1.00;;;;;;2272788;61;1661;-85
2022/10/06 04:53:30;373118.00;1.24;643.60;0.00;0.00;0.62;;;;;18.20;1.00;;;;;;2272812;61;1428;-86
2022/10/06 04:56:01;350938.00;1.17;605.47;0.00;0.00;0.62;;;;;18.10;1.00;;;;;;2272846;61;1072;-85
2022/10/06 04:58:30;372709.00;1.24;642.89;0.00;0.00;0.62;;;;;18.00;1.00;;;;;;2272883;61;1075;-85
2022/10/06 05:00:57;336992.00;1.12;581.50;0.00;0.00;0.62;;;;;18.10;1.00;;;;;;2272848;61;1110;-86
2022/10/06 05:03:24;266824.00;0.89;460.88;0.00;0.00;0.62;;;;;18.40;1.00;;;;;;2272640;61;1306;-85
2022/10/06 05:05:52;393218.00;1.31;678.15;0.00;0.00;0.62;;;;;18.50;1.00;;;;;;2272837;61;927;-85
2022/10/06 05:08:19;367863.00;1.23;634.56;0.00;0.00;0.62;;;;;18.50;1.00;;;;;;2272748;61;1748;-85
2022/10/06 05:10:46;391736.00;1.31;675.60;0.00;0.00;0.62;;;;;18.50;1.00;;;;;;2272831;61;2005;-85
2022/10/06 05:13:14;424806.00;1.42;732.45;0.00;0.00;0.62;;;;;18.40;1.00;;;;;;2272702;61;1437;-86
2022/10/06 05:15:41;317271.00;1.06;547.61;0.00;0.00;0.62;;;;;18.40;1.00;;;;;;2272710;61;1043;-88
2022/10/06 05:18:08;493572.00;1.65;850.76;0.00;0.00;0.62;;;;;18.40;1.00;;;;;;2272831;61;938;-86
2022/10/06 05:20:35;468851.00;1.56;808.21;0.00;0.00;0.62;;;;;18.30;1.00;;;;;;2272605;61;1106;-86
2022/10/06 05:23:07;446061.00;1.49;769.01;0.00;0.00;0.62;;;;;18.30;1.00;;;;;;2272787;61;1412;-88
2022/10/06 05:25:33;480896.00;1.60;828.94;0.00;0.00;0.62;;;;;18.10;1.00;;;;;;2272755;61;1163;-87
2022/10/06 05:28:00;117249656.00;390.83;65292276.00;64388.00;0.21;112.06;;;;;17.70;1.00;;;;;;2272668;61;1046;-85
2022/10/06 05:30:27;483902.00;1.61;834.11;0.00;0.00;0.62;;;;;17.40;1.00;;;;;;2272718;61;1996;-86
2022/10/06 05:32:54;305442.00;1.02;527.27;0.00;0.00;0.62;;;;;17.60;1.00;;;;;;2272627;61;1275;-86
2022/10/06 05:35:21;461019.00;1.54;794.74;67596.00;0.23;117.61;;;;;17.70;1.00;;;;;;2272687;61;984;-87
2022/10/06 05:37:48;305901.00;1.02;528.06;0.00;0.00;0.62;;;;;17.80;1.00;;;;;;2272785;61;1038;-87
2022/10/06 05:40:16;469068.00;1.56;808.59;0.00;0.00;0.62;;;;;18.00;1.00;;;;;;2272687;61;1119;-87
2022/10/06 05:42:43;358563.00;1.20;618.58;0.00;0.00;0.62;;;;;18.20;1.00;;;;;;2272742;61;1027;-86
2022/10/06 05:45:10;496839.00;1.66;856.38;0.00;0.00;0.62;;;;;18.30;1.00;;;;;;2272624;61;1711;-86
2022/10/06 05:47:37;316873.00;1.06;546.92;0.00;0.00;0.62;;;;;18.30;1.00;;;;;;2272634;61;1098;-87
2022/10/06 05:50:04;507291.00;1.69;874.38;0.00;0.00;0.62;;;;;18.40;1.00;;;;;;2272631;61;1915;-86
2022/10/06 05:52:31;504467.00;1.68;869.51;0.00;0.00;0.62;;;;;18.30;1.00;;;;;;2272692;61;949;-86
2022/10/06 05:54:58;536583.00;1.79;924.83;10047.00;0.03;18.03;;;;;18.40;1.00;;;;;;2272430;61;1409;-87
2022/10/06 06:00:03;538634.00;1.80;928.37;0.00;0.00;0.62;;;;;18.80;1.00;;;;;;2265971;61;1398;-85
2022/10/06 06:02:30;279603.00;0.93;482.85;0.00;0.00;0.62;;;;;18.90;1.00;;;;;;2264472;61;1023;-85
2022/10/06 06:04:57;583180.00;1.94;1005.19;0.00;0.00;0.62;;;;;18.90;1.00;;;;;;2264477;61;1375;-86
2022/10/06 06:07:24;315498.00;1.05;544.56;0.00;0.00;0.62;;;;;18.90;1.00;;;;;;2264416;61;1025;-84
2022/10/06 06:09:52;565452.00;1.88;974.60;0.00;0.00;0.62;;;;;18.80;1.00;;;;;;2264333;61;1918;-86
2022/10/06 06:12:19;297950.00;0.99;514.40;0.00;0.00;0.62;;;;;18.90;1.00;;;;;;2264543;61;1092;-86
2022/10/06 06:17:33;286396.00;0.95;494.53;0.00;0.00;0.62;;;;;18.70;1.00;;;;;;2264561;61;674;-87
2022/10/06 06:20:00;286555.00;0.96;494.81;67192.00;0.22;116.91;;;;;18.70;1.00;;;;;;2264528;61;1299;-87
2022/10/06 06:22:27;396963.00;1.32;684.58;0.00;0.00;0.62;;;;;18.80;1.00;;;;;;2264443;61;1114;-86
2022/10/06 06:24:53;364125.00;1.21;628.14;0.00;0.00;0.62;;;;;18.90;1.00;;;;;;2264335;61;1420;-86
2022/10/06 06:27:20;425601.00;1.42;733.82;0.00;0.00;0.62;;;;;18.70;1.00;;;;;;2264293;61;1542;-87
2022/10/06 06:29:47;441223.00;1.47;760.69;0.00;0.00;0.62;;;;;18.60;1.00;;;;;;2264357;61;1994;-89
2022/10/06 06:32:14;461162.00;1.54;794.98;0.00;0.00;0.62;;;;;18.70;1.00;;;;;;2264381;61;1644;-87
2022/10/06 06:34:42;345982.00;1.15;596.96;0.00;0.00;0.62;;;;;18.50;1.00;;;;;;2264449;61;1312;-87
2022/10/06 06:37:09;277896.00;0.93;479.92;0.00;0.00;0.62;;;;;18.40;1.00;;;;;;2264527;61;1083;-87
2022/10/06 06:39:36;286303.00;0.95;494.37;0.00;0.00;0.62;;;;;18.60;1.00;;;;;;2264444;61;987;-87
2022/10/06 06:42:07;443272.00;1.48;764.21;0.00;0.00;0.62;;;;;18.80;1.00;;;;;;2264482;61;956;-88
2022/10/06 06:44:34;531196.00;1.77;915.55;0.00;0.00;0.62;;;;;18.80;1.00;;;;;;2264371;61;1578;-86
2022/10/06 06:47:01;520626.00;1.74;897.34;0.00;0.00;0.62;;;;;18.70;1.00;;;;;;2264390;61;1531;-87
2022/10/06 06:49:28;618924.00;2.06;1066.91;0.00;0.00;0.62;;;;;18.60;1.00;;;;;;2264207;61;1990;-87
2022/10/06 06:51:56;454986.00;1.52;784.36;0.00;0.00;0.62;;;;;18.80;1.00;;;;;;2264384;61;1057;-87
2022/10/06 06:54:23;350493.00;1.17;604.71;0.00;0.00;0.62;;;;;19.00;1.00;;;;;;2264427;61;1399;-87
2022/10/06 06:56:50;358440.00;1.19;618.37;0.00;0.00;0.62;;;;;19.00;1.00;;;;;;2264393;61;1146;-87
2022/10/06 06:59:19;407091.00;1.36;702.00;0.00;0.00;0.62;;;;;19.00;1.00;;;;;;2264263;61;1030;-87
2022/10/06 07:01:47;1072703.00;3.58;1861.68;241541.00;0.81;417.40;;;;;19.00;1.00;;;;;;2264349;61;1123;-86
2022/10/06 07:04:18;471822.00;1.57;813.32;0.00;0.00;0.62;;;;;18.30;1.00;;;;;;2264224;61;1378;-85
2022/10/06 07:06:57;810384.00;2.70;1399.24;59298.00;0.20;103.26;;;;;18.40;1.00;;;;;;2264094;61;1587;-86
2022/10/06 07:09:25;674240.00;2.25;1162.60;95461.00;0.32;165.74;;;;;18.60;1.00;;;;;;2264303;61;2332;-87
2022/10/06 07:11:53;531248.00;1.77;915.64;0.00;0.00;0.62;;;;;18.70;1.00;;;;;;2264205;61;1533;-87
2022/10/06 07:14:23;382274.00;1.27;659.33;0.00;0.00;0.62;;;;;19.00;1.00;;;;;;2264133;61;1600;-86
2022/10/06 07:25:27;553663.00;1.85;954.27;55806.00;0.19;97.23;;;;;19.30;1.00;;;;;;2255874;61;742;-87
2022/10/06 07:27:55;409862.00;1.37;706.76;239.00;0.00;1.03;;;;;19.40;1.00;;;;;;2260838;61;1076;-86
2022/10/06 07:30:24;483633.00;1.61;833.65;0.00;0.00;0.62;;;;;19.40;1.00;;;;;;2264231;61;2136;-87
2022/10/06 07:32:52;477854.00;1.59;823.70;0.00;0.00;0.62;;;;;19.40;1.00;;;;;;2264178;61;1884;-88
2022/10/06 07:35:21;694602.00;2.32;1197.88;61996.00;0.21;107.93;;;;;19.60;1.00;;;;;;2264326;61;1062;-86
2022/10/06 07:37:50;378635.00;1.26;653.08;0.00;0.00;0.62;;;;;19.50;1.00;;;;;;2264287;61;1080;-86
2022/10/06 07:40:19;510429.00;1.70;879.78;0.00;0.00;0.62;;;;;19.30;1.00;;;;;;2264329;61;979;-86
2022/10/06 07:42:48;387784.00;1.29;668.81;0.00;0.00;0.62;;;;;19.10;1.00;;;;;;2264153;61;1278;-87
2022/10/06 07:48:01;291335.00;0.97;503.02;0.00;0.00;0.62;;;;;19.30;1.00;;;;;;2264302;61;726;-86
2022/10/06 07:50:30;495728.00;1.65;854.47;0.00;0.00;0.62;;;;;19.40;1.00;;;;;;2264195;61;1914;-87
2022/10/06 07:53:03;541973.00;1.81;934.12;0.00;0.00;0.62;;;;;19.30;1.00;;;;;;2264237;61;1282;-87
2022/10/06 07:55:31;386803.00;1.29;667.12;0.00;0.00;0.62;;;;;19.10;1.00;;;;;;2264274;61;1080;-87
2022/10/06 07:57:59;408199.00;1.36;703.90;0.00;0.00;0.62;;;;;19.20;1.00;;;;;;2264188;61;1026;-86
2022/10/06 08:00:26;683148.00;2.28;1178.03;108933.00;0.36;188.99;;;;;19.40;1.00;;;;;;2264265;61;1095;-87
2022/10/06 08:02:54;415275.00;1.38;716.07;12784.00;0.04;22.77;;;;;19.50;1.00;;;;;;2264163;61;1285;-87
2022/10/06 08:05:21;285024.00;0.95;492.17;0.00;0.00;0.62;;;;;19.40;1.00;;;;;;2264219;61;1079;-87
2022/10/06 08:07:48;466726.00;1.56;804.56;0.00;0.00;0.62;;;;;19.50;1.00;;;;;;2264238;61;1073;-87
2022/10/06 08:10:17;574228.00;1.91;989.74;628.00;0.00;1.71;;;;;19.60;1.00;;;;;;2264197;61;1982;-86
2022/10/06 08:12:44;624034.00;2.08;1075.74;0.00;0.00;0.62;;;;;19.50;1.00;;;;;;2264213;61;1245;-88
2022/10/06 08:15:13;628855.00;2.10;1084.07;122913.00;0.41;213.11;;;;;19.70;1.00;;;;;;2264220;61;948;-87
2022/10/06 08:17:40;545777.00;1.82;940.68;0.00;0.00;0.62;;;;;19.70;1.00;;;;;;2264071;61;1127;-86
2022/10/06 08:20:10;507474.00;1.69;874.69;45372.00;0.15;79.18;;;;;19.60;1.00;;;;;;2264841;61;1148;-86
2022/10/06 08:22:38;620741.00;2.07;1070.05;0.00;0.00;0.62;;;;;19.60;1.00;;;;;;2264886;61;953;-87
2022/10/06 08:25:07;435331.00;1.45;750.55;0.00;0.00;0.62;;;;;19.80;1.00;;;;;;2264869;61;1298;-87
2022/10/06 08:27:35;497157.00;1.66;856.93;50960.00;0.17;88.85;;;;;19.80;1.00;;;;;;2264898;61;1422;-87
2022/10/06 08:30:03;402647.00;1.34;694.36;0.00;0.00;0.62;;;;;19.90;1.00;;;;;;2264824;61;1919;-86
2022/10/06 08:32:32;434701.00;1.45;749.47;0.00;0.00;0.62;;;;;19.80;1.00;;;;;;2264860;61;1100;-87
2022/10/06 08:34:59;323715.00;1.08;558.68;0.00;0.00;0.62;;;;;19.80;1.00;;;;;;2264714;61;1393;-86
2022/10/06 08:37:26;781066.00;2.60;1348.12;4371.00;0.01;8.20;;;;;19.90;1.00;;;;;;2264756;61;1510;-86
2022/10/06 08:39:54;368871.00;1.23;636.30;0.00;0.00;0.62;;;;;19.90;1.00;;;;;;2264732;61;1141;-86
2022/10/06 08:42:31;243650.00;0.81;421.03;0.00;0.00;0.62;;;;;20.20;1.00;;;;;;2264693;61;1003;-88
2022/10/06 08:45:02;649807.00;2.17;1120.30;0.00;0.00;0.62;;;;;20.20;1.00;;;;;;2264695;61;1413;-87
2022/10/06 08:47:35;344698.00;1.15;594.75;0.00;0.00;0.62;;;;;20.20;1.00;;;;;;2264769;61;1542;-87
2022/10/06 08:50:08;399891.00;1.33;689.62;21495.00;0.07;37.86;;;;;20.30;1.00;;;;;;2264812;61;1997;-86
2022/10/06 08:52:51;538255.00;1.79;927.72;0.00;0.00;0.62;;;;;20.30;1.00;;;;;;2264751;61;1001;-86
2022/10/06 08:55:31;506345.00;1.69;872.75;28313.00;0.09;49.66;;;;;20.40;1.00;;;;;;2264781;61;1502;-86
2022/10/06 08:58:20;346852.00;1.16;598.45;0.00;0.00;0.62;;;;;20.50;1.00;;;;;;2264780;61;1058;-89
2022/10/06 09:00:47;686085.00;2.29;1183.12;122201.00;0.41;211.88;;;;;20.80;1.00;;;;;;2264840;61;1208;-87
2022/10/06 09:03:22;485804.00;1.62;837.39;38252.00;0.13;66.86;;;;;21.00;1.00;;;;;;2264739;61;2270;-87
2022/10/06 09:05:52;438177.00;1.46;755.45;59451.00;0.20;103.53;;;;;21.10;1.00;;;;;;2264798;61;1785;-87
2022/10/06 09:08:39;439385.00;1.46;757.53;0.00;0.00;0.62;;;;;21.30;1.00;;;;;;2264734;61;922;-87
2022/10/06 09:11:26;1017009.00;3.39;1762.62;175158.00;0.58;303.15;;;;;21.30;1.00;;;;;;2264673;61;1997;-85
2022/10/06 09:14:00;613254.00;2.04;1057.11;85806.00;0.29;149.07;;;;;21.40;1.00;;;;;;2264706;61;1585;-86
2022/10/06 09:16:32;490125.00;1.63;844.82;73656.00;0.25;128.08;;;;;21.30;1.00;;;;;;2264617;61;1098;-86
2022/10/06 09:19:11;586765.00;1.96;1011.37;61507.00;0.21;107.08;;;;;21.20;1.00;;;;;;2264762;61;1119;-86
2022/10/06 09:21:42;839463.00;2.80;1450.04;220655.00;0.74;381.47;;;;;21.20;1.00;;;;;;2264754;61;1065;-85
2022/10/06 09:24:15;655651.00;2.19;1130.41;137208.00;0.46;237.76;;;;;21.40;1.00;;;;;;2264640;61;1567;-86
2022/10/06 09:26:44;611072.00;2.04;1053.34;63944.00;0.21;111.29;;;;;21.50;1.00;;;;;;2264758;61;984;-85
2022/10/06 09:29:12;816459.00;2.72;1409.84;66017.00;0.22;114.88;;;;;21.60;1.00;;;;;;2264699;61;1591;-87
2022/10/06 09:31:41;635972.00;2.12;1096.37;59468.00;0.20;103.56;;;;;21.50;1.00;;;;;;2264432;61;2010;-86
2022/10/06 09:34:23;664374.00;2.21;1145.51;38605.00;0.13;67.47;;;;;21.70;1.00;;;;;;2264670;61;1487;-86
2022/10/06 09:36:59;845325.00;2.82;1460.29;89772.00;0.30;155.91;;;;;21.60;1.00;;;;;;2264731;61;1006;-88
2022/10/06 09:39:32;1311425.00;4.37;2293.03;138104.00;0.46;239.30;;;;;21.80;1.00;;;;;;2264695;61;1068;-87
2022/10/06 09:42:03;1202300.00;4.01;2094.38;248522.00;0.83;429.41;;;;;21.80;1.00;;;;;;2264644;61;1000;-86
2022/10/06 09:44:34;833999.00;2.78;1440.48;0.00;0.00;0.62;;;;;21.80;1.00;;;;;;2264687;61;1479;-87
2022/10/06 09:47:01;967993.00;3.23;1675.86;75252.00;0.25;130.84;;;;;21.90;1.00;;;;;;2264630;61;1513;-87
2022/10/06 09:49:31;638458.00;2.13;1100.67;64130.00;0.21;111.62;;;;;21.90;1.00;;;;;;2264599;61;1040;-87
2022/10/06 09:52:09;120235464.00;400.78;70413248.00;60481.00;0.20;105.31;;;;;22.10;1.00;;;;;;2264575;61;1988;-88
2022/10/06 09:54:36;782699.00;2.61;1350.97;118570.00;0.40;205.62;;;;;22.40;1.00;;;;;;2264605;61;1388;-86
2022/10/06 09:57:10;467301.00;1.56;805.55;72350.00;0.24;125.82;;;;;22.30;1.00;;;;;;2264638;61;1339;-87
2022/10/06 09:59:42;488341.00;1.63;841.75;0.00;0.00;0.62;;;;;22.40;1.00;;;;;;2264574;61;1122;-88
2022/10/06 10:02:35;771004.00;2.57;1330.60;56701.00;0.19;98.77;;;;;22.60;1.00;;;;;;2264637;61;979;-88
2022/10/06 10:05:06;423311.00;1.41;729.88;35970.00;0.12;62.92;;;;;22.80;1.00;;;;;;2264101;61;1342;-88
2022/10/06 10:07:35;471212.00;1.57;812.28;0.00;0.00;0.62;;;;;22.70;1.00;;;;;;2264637;61;935;-87
2022/10/06 10:10:20;354109.00;1.18;610.92;0.00;0.00;0.62;;;;;22.70;1.00;;;;;;2264594;61;1127;-86
2022/10/06 10:12:50;298570.00;1.00;515.46;0.00;0.00;0.62;;;;;23.00;1.00;;;;;;2264530;61;1419;-87
2022/10/06 10:15:30;503541.00;1.68;867.92;0.00;0.00;0.62;;;;;22.90;1.00;;;;;;2264544;61;1019;-87